createdAt,value
2023-04-04T00:00:21.689Z,29.37
2023-04-04T00:01:21.674Z,29.40
2023-04-04T00:02:21.728Z,29.39
2023-04-04T00:03:21.907Z,29.40
2023-04-04T00:04:21.679Z,29.44
2023-04-04T00:05:21.626Z,29.40
2023-04-04T00:06:21.613Z,29.36
2023-04-04T00:07:21.598Z,29.43
2023-04-04T00:08:21.589Z,29.42
2023-04-04T00:09:21.594Z,29.39
2023-04-04T00:10:21.578Z,29.37
2023-04-04T00:11:21.558Z,29.38
2023-04-04T00:12:23.163Z,29.36
2023-04-04T00:13:21.565Z,29.39
2023-04-04T00:14:21.538Z,29.31
2023-04-04T00:15:21.535Z,29.34
2023-04-04T00:16:21.585Z,29.30
2023-04-04T00:17:21.502Z,29.29
2023-04-04T00:18:21.500Z,29.30
2023-04-04T00:19:21.476Z,29.32
2023-04-04T00:20:21.473Z,29.29
2023-04-04T00:21:21.461Z,29.29
2023-04-04T00:22:21.442Z,29.30
2023-04-04T00:23:21.425Z,29.25
2023-04-04T00:24:21.410Z,29.28
2023-04-04T00:25:21.400Z,29.22
2023-04-04T00:26:21.382Z,29.24
2023-04-04T00:27:21.369Z,29.24
2023-04-04T00:28:21.381Z,29.18
2023-04-04T00:29:21.384Z,29.23
2023-04-04T00:30:21.364Z,29.20
2023-04-04T00:31:21.415Z,29.18
2023-04-04T00:32:21.447Z,29.18
2023-04-04T00:33:21.409Z,29.16
2023-04-04T00:34:21.353Z,29.15
2023-04-04T00:35:21.343Z,29.15
2023-04-04T00:36:21.336Z,29.10
2023-04-04T00:37:21.365Z,29.15
2023-04-04T00:38:21.336Z,29.12
2023-04-04T00:39:21.332Z,29.09
2023-04-04T00:40:21.344Z,29.09
2023-04-04T00:41:21.320Z,29.15
2023-04-04T00:42:21.323Z,29.10
2023-04-04T00:43:21.337Z,29.10
2023-04-04T00:44:21.294Z,29.06
2023-04-04T00:45:21.468Z,29.08
2023-04-04T00:46:21.300Z,29.08
2023-04-04T00:47:21.345Z,29.10
2023-04-04T00:48:21.380Z,29.07
2023-04-04T00:49:21.418Z,29.10
2023-04-04T00:50:21.491Z,29.09
2023-04-04T00:51:21.500Z,29.10
2023-04-04T00:52:21.772Z,29.07
2023-04-04T00:53:21.595Z,29.08
2023-04-04T00:54:21.616Z,29.10
2023-04-04T00:55:21.665Z,29.07
2023-04-04T00:56:21.707Z,29.11
2023-04-04T00:57:21.738Z,29.04
2023-04-04T00:58:21.789Z,29.07
2023-04-04T00:59:21.904Z,29.08
2023-04-04T01:00:21.874Z,29.03
2023-04-04T01:01:21.956Z,29.07
2023-04-04T01:02:21.982Z,29.08
2023-04-04T01:03:21.981Z,29.10
2023-04-04T01:04:22.058Z,29.06
2023-04-04T01:05:22.088Z,29.02
2023-04-04T01:06:22.110Z,29.06
2023-04-04T01:07:22.138Z,29.06
2023-04-04T01:08:22.184Z,29.03
2023-04-04T01:09:22.223Z,29.06
2023-04-04T01:10:22.300Z,29.06
2023-04-04T01:11:22.302Z,29.03
2023-04-04T01:12:22.353Z,29.02
2023-04-04T01:13:22.368Z,29.03
2023-04-04T01:14:22.421Z,29.05
2023-04-04T01:15:22.493Z,29.02
2023-04-04T01:16:22.516Z,29.05
2023-04-04T01:17:22.558Z,29.08
2023-04-04T01:18:22.591Z,29.03
2023-04-04T01:19:22.629Z,29.08
2023-04-04T01:20:22.673Z,29.02
2023-04-04T01:21:22.709Z,29.02
2023-04-04T01:22:22.756Z,29.00
2023-04-04T01:23:22.791Z,29.00
2023-04-04T01:24:22.835Z,29.03
2023-04-04T01:25:22.861Z,29.02
2023-04-04T01:26:22.906Z,29.04
2023-04-04T01:27:22.945Z,28.99
2023-04-04T01:28:22.985Z,29.03
2023-04-04T01:29:23.029Z,28.98
2023-04-04T01:30:23.054Z,29.05
2023-04-04T01:31:23.351Z,29.02
2023-04-04T01:32:23.139Z,29.07
2023-04-04T01:33:23.191Z,29.06
2023-04-04T01:34:23.219Z,29.02
2023-04-04T01:35:23.270Z,29.04
2023-04-04T01:36:23.351Z,29.02
2023-04-04T01:37:23.346Z,29.04
2023-04-04T01:38:23.373Z,29.04
2023-04-04T01:39:23.413Z,29.06
2023-04-04T01:40:23.451Z,29.06
2023-04-04T01:41:23.512Z,29.00
2023-04-04T01:42:23.530Z,29.06
2023-04-04T01:43:23.575Z,29.04
2023-04-04T01:44:23.613Z,29.00
2023-04-04T01:45:23.647Z,29.04
2023-04-04T01:46:23.706Z,29.02
2023-04-04T01:47:23.773Z,29.03
2023-04-04T01:48:23.767Z,29.00
2023-04-04T01:49:23.864Z,28.99
2023-04-04T01:50:23.856Z,28.96
2023-04-04T01:51:23.944Z,28.98
2023-04-04T01:52:23.920Z,28.99
2023-04-04T01:53:23.971Z,28.98
2023-04-04T01:54:23.994Z,28.95
2023-04-04T01:55:24.035Z,29.00
2023-04-04T01:56:24.073Z,28.99
2023-04-04T01:57:24.100Z,28.99
2023-04-04T01:58:24.138Z,29.00
2023-04-04T01:59:24.220Z,28.95
2023-04-04T02:00:24.222Z,28.95
2023-04-04T02:01:24.294Z,28.96
2023-04-04T02:02:24.342Z,28.96
2023-04-04T02:03:24.334Z,29.03
2023-04-04T02:04:24.390Z,28.95
2023-04-04T02:05:24.429Z,28.96
2023-04-04T02:06:24.438Z,28.96
2023-04-04T02:07:24.488Z,28.94
2023-04-04T02:08:24.516Z,28.91
2023-04-04T02:09:24.545Z,28.93
2023-04-04T02:10:24.585Z,28.91
2023-04-04T02:11:24.627Z,28.98
2023-04-04T02:12:24.660Z,28.99
2023-04-04T02:13:24.703Z,28.95
2023-04-04T02:14:24.725Z,28.95
2023-04-04T02:15:24.763Z,28.98
2023-04-04T02:16:24.900Z,28.96
2023-04-04T02:17:24.932Z,28.98
2023-04-04T02:18:24.888Z,28.95
2023-04-04T02:19:24.914Z,28.95
2023-04-04T02:20:24.951Z,28.96
2023-04-04T02:21:25.017Z,28.96
2023-04-04T02:22:25.032Z,28.94
2023-04-04T02:23:25.143Z,28.93
2023-04-04T02:24:25.102Z,28.94
2023-04-04T02:25:25.147Z,28.94
2023-04-04T02:26:25.180Z,28.94
2023-04-04T02:27:25.217Z,28.90
2023-04-04T02:28:25.245Z,28.96
2023-04-04T02:29:25.295Z,28.91
2023-04-04T02:30:25.331Z,28.88
2023-04-04T02:31:25.388Z,28.91
2023-04-04T02:32:25.508Z,28.90
2023-04-04T02:33:25.445Z,28.93
2023-04-04T02:34:25.483Z,28.91
2023-04-04T02:35:25.527Z,28.88
2023-04-04T02:36:25.551Z,28.93
2023-04-04T02:37:25.637Z,28.90
2023-04-04T02:38:25.637Z,28.94
2023-04-04T02:39:25.681Z,28.94
2023-04-04T02:40:25.710Z,28.92
2023-04-04T02:41:25.746Z,28.88
2023-04-04T02:42:25.807Z,28.88
2023-04-04T02:43:25.816Z,28.85
2023-04-04T02:44:25.885Z,28.87
2023-04-04T02:45:25.914Z,28.87
2023-04-04T02:46:25.979Z,28.87
2023-04-04T02:47:26.049Z,28.90
2023-04-04T02:48:26.025Z,28.86
2023-04-04T02:49:26.092Z,28.88
2023-04-04T02:50:26.088Z,28.93
2023-04-04T02:51:26.133Z,28.86
2023-04-04T02:52:26.184Z,28.90
2023-04-04T02:53:26.224Z,28.90
2023-04-04T02:54:26.256Z,28.88
2023-04-04T02:55:26.266Z,28.88
2023-04-04T02:56:26.312Z,28.91
2023-04-04T02:57:26.341Z,28.87
2023-04-04T02:58:26.390Z,28.81
2023-04-04T02:59:26.607Z,28.88
2023-04-04T03:00:26.463Z,28.84
2023-04-04T03:01:26.524Z,28.90
2023-04-04T03:02:26.563Z,28.82
2023-04-04T03:03:26.644Z,28.86
2023-04-04T03:04:26.590Z,28.87
2023-04-04T03:05:26.644Z,28.85
2023-04-04T03:06:26.668Z,28.85
2023-04-04T03:07:26.696Z,28.84
2023-04-04T03:08:26.739Z,28.84
2023-04-04T03:09:26.794Z,28.84
2023-04-04T03:10:26.805Z,28.80
2023-04-04T03:11:26.840Z,28.84
2023-04-04T03:12:26.871Z,28.80
2023-04-04T03:13:26.914Z,28.82
2023-04-04T03:14:26.947Z,28.85
2023-04-04T03:15:26.987Z,28.82
2023-04-04T03:16:27.096Z,28.83
2023-04-04T03:17:27.082Z,28.87
2023-04-04T03:18:27.091Z,28.84
2023-04-04T03:19:27.130Z,28.83
2023-04-04T03:20:27.188Z,28.83
2023-04-04T03:21:27.205Z,28.82
2023-04-04T03:22:27.239Z,28.76
2023-04-04T03:23:27.280Z,28.84
2023-04-04T03:24:27.305Z,28.78
2023-04-04T03:25:27.494Z,28.85
2023-04-04T03:26:27.382Z,28.82
2023-04-04T03:27:27.419Z,28.79
2023-04-04T03:28:27.455Z,28.79
2023-04-04T03:29:27.491Z,28.79
2023-04-04T03:30:27.547Z,28.83
2023-04-04T03:31:27.584Z,28.78
2023-04-04T03:32:27.600Z,28.80
2023-04-04T03:33:27.639Z,28.79
2023-04-04T03:34:27.686Z,28.80
2023-04-04T03:35:27.747Z,28.83
2023-04-04T03:36:27.757Z,28.85
2023-04-04T03:37:27.784Z,28.83
2023-04-04T03:38:27.851Z,28.81
2023-04-04T03:39:27.852Z,28.85
2023-04-04T03:40:27.911Z,28.79
2023-04-04T03:41:27.970Z,28.80
2023-04-04T03:42:27.969Z,28.84
2023-04-04T03:43:28.001Z,28.84
2023-04-04T03:44:28.043Z,28.80
2023-04-04T03:45:28.079Z,28.79
2023-04-04T03:46:28.215Z,28.82
2023-04-04T03:47:28.181Z,28.78
2023-04-04T03:48:28.177Z,28.78
2023-04-04T03:49:28.214Z,28.83
2023-04-04T03:50:28.243Z,28.80
2023-04-04T03:51:28.292Z,28.83
2023-04-04T03:52:28.331Z,28.83
2023-04-04T03:53:28.352Z,28.80
2023-04-04T03:54:28.386Z,28.79
2023-04-04T03:55:28.443Z,28.80
2023-04-04T03:56:28.474Z,28.81
2023-04-04T03:57:28.525Z,28.83
2023-04-04T03:58:28.544Z,28.80
2023-04-04T03:59:28.621Z,28.80
2023-04-04T04:00:28.632Z,28.82
2023-04-04T04:01:28.659Z,28.75
2023-04-04T04:02:28.768Z,28.80
2023-04-04T04:03:28.859Z,28.74
2023-04-04T04:04:28.800Z,28.78
2023-04-04T04:05:28.805Z,28.80
2023-04-04T04:06:28.845Z,28.75
2023-04-04T04:07:28.880Z,28.76
2023-04-04T04:08:28.915Z,28.75
2023-04-04T04:09:28.951Z,28.72
2023-04-04T04:10:28.989Z,28.78
2023-04-04T04:11:29.022Z,28.75
2023-04-04T04:12:29.059Z,28.73
2023-04-04T04:13:29.116Z,28.78
2023-04-04T04:14:29.129Z,28.76
2023-04-04T04:15:29.158Z,28.75
2023-04-04T04:16:29.257Z,28.78
2023-04-04T04:17:29.303Z,28.78
2023-04-04T04:18:29.273Z,28.76
2023-04-04T04:19:29.311Z,28.68
2023-04-04T04:20:29.350Z,28.70
2023-04-04T04:21:29.379Z,28.72
2023-04-04T04:22:29.431Z,28.72
2023-04-04T04:23:29.458Z,28.71
2023-04-04T04:24:29.517Z,28.71
2023-04-04T04:25:29.532Z,28.71
2023-04-04T04:26:29.575Z,28.70
2023-04-04T04:27:29.607Z,28.69
2023-04-04T04:28:33.514Z,28.70
2023-04-04T04:29:30.914Z,28.70
2023-04-04T04:30:29.856Z,28.72
2023-04-04T04:31:29.928Z,28.67
2023-04-04T04:32:29.922Z,28.68
2023-04-04T04:33:29.934Z,28.67
2023-04-04T04:34:29.962Z,28.71
2023-04-04T04:35:30.001Z,28.72
2023-04-04T04:36:30.107Z,28.71
2023-04-04T04:37:30.069Z,28.65
2023-04-04T04:38:30.113Z,28.68
2023-04-04T04:39:30.145Z,28.68
2023-04-04T04:40:30.192Z,28.72
2023-04-04T04:41:30.241Z,28.66
2023-04-04T04:42:30.267Z,28.65
2023-04-04T04:43:30.309Z,28.70
2023-04-04T04:44:30.339Z,28.65
2023-04-04T04:45:30.406Z,28.70
2023-04-04T04:46:30.453Z,28.71
2023-04-04T04:47:30.489Z,28.70
2023-04-04T04:48:30.508Z,28.67
2023-04-04T04:49:30.552Z,28.71
2023-04-04T04:50:30.590Z,28.67
2023-04-04T04:51:30.630Z,28.68
2023-04-04T04:52:30.672Z,28.67
2023-04-04T04:53:30.706Z,28.69
2023-04-04T04:54:30.748Z,28.68
2023-04-04T04:55:30.794Z,28.69
2023-04-04T04:56:30.826Z,28.64
2023-04-04T04:57:30.856Z,28.60
2023-04-04T04:58:30.894Z,28.63
2023-04-04T04:59:31.077Z,28.72
2023-04-04T05:00:30.975Z,28.68
2023-04-04T05:01:31.118Z,28.68
2023-04-04T05:02:31.107Z,28.67
2023-04-04T05:03:31.095Z,28.68
2023-04-04T05:04:31.147Z,28.66
2023-04-04T05:05:31.188Z,28.68
2023-04-04T05:06:31.226Z,28.67
2023-04-04T05:07:31.266Z,28.65
2023-04-04T05:08:31.307Z,28.63
2023-04-04T05:09:31.365Z,28.61
2023-04-04T05:10:31.408Z,28.65
2023-04-04T05:11:31.446Z,28.65
2023-04-04T05:12:31.491Z,28.69
2023-04-04T05:13:31.543Z,28.67
2023-04-04T05:14:31.578Z,28.64
2023-04-04T05:15:31.677Z,28.63
2023-04-04T05:16:31.713Z,28.65
2023-04-04T05:17:31.788Z,28.61
2023-04-04T05:18:31.760Z,28.63
2023-04-04T05:19:31.928Z,28.65
2023-04-04T05:20:31.846Z,28.65
2023-04-04T05:21:31.882Z,28.64
2023-04-04T05:22:31.921Z,28.65
2023-04-04T05:23:31.977Z,28.63
2023-04-04T05:24:32.016Z,28.65
2023-04-04T05:25:32.045Z,28.64
2023-04-04T05:26:32.094Z,28.63
2023-04-04T05:27:32.118Z,28.64
2023-04-04T05:28:32.153Z,28.60
2023-04-04T05:29:32.197Z,28.65
2023-04-04T05:30:32.256Z,28.60
2023-04-04T05:31:32.300Z,28.61
2023-04-04T05:32:32.361Z,28.65
2023-04-04T05:33:32.383Z,28.60
2023-04-04T05:34:32.410Z,28.59
2023-04-04T05:35:32.463Z,28.64
2023-04-04T05:36:32.501Z,28.59
2023-04-04T05:37:34.341Z,28.58
2023-04-04T05:38:32.512Z,28.60
2023-04-04T05:39:32.590Z,28.59
2023-04-04T05:40:32.524Z,28.58
2023-04-04T05:41:32.507Z,28.58
2023-04-04T05:42:32.489Z,28.58
2023-04-04T05:43:32.506Z,28.59
2023-04-04T05:44:32.487Z,28.59
2023-04-04T05:45:32.485Z,28.60
2023-04-04T05:46:32.648Z,28.59
2023-04-04T05:47:32.537Z,28.60
2023-04-04T05:48:32.464Z,28.60
2023-04-04T05:49:32.494Z,28.55
2023-04-04T05:50:32.460Z,28.56
2023-04-04T05:51:32.452Z,28.60
2023-04-04T05:52:32.442Z,28.57
2023-04-04T05:53:32.448Z,28.59
2023-04-04T05:54:32.428Z,28.58
2023-04-04T05:55:32.433Z,28.62
2023-04-04T05:56:32.419Z,28.61
2023-04-04T05:57:32.405Z,28.58
2023-04-04T05:58:32.409Z,28.59
2023-04-04T05:59:32.452Z,28.59
2023-04-04T06:00:32.386Z,28.56
2023-04-04T06:01:32.372Z,28.55
2023-04-04T06:02:32.446Z,28.54
2023-04-04T06:03:32.530Z,28.56
2023-04-04T06:04:32.356Z,28.59
2023-04-04T06:05:32.395Z,28.59
2023-04-04T06:06:32.345Z,28.60
2023-04-04T06:07:32.313Z,28.56
2023-04-04T06:08:37.562Z,28.58
2023-04-04T06:09:32.295Z,28.56
2023-04-04T06:10:32.288Z,28.58
2023-04-04T06:11:32.280Z,28.55
2023-04-04T06:12:32.265Z,28.58
2023-04-04T06:13:32.245Z,28.58
2023-04-04T06:14:32.234Z,28.55
2023-04-04T06:15:32.225Z,28.59
2023-04-04T06:16:32.320Z,28.58
2023-04-04T06:17:32.232Z,28.61
2023-04-04T06:18:32.200Z,28.58
2023-04-04T06:19:32.194Z,28.59
2023-04-04T06:20:32.182Z,28.59
2023-04-04T06:21:32.214Z,28.58
2023-04-04T06:22:32.163Z,28.56
2023-04-04T06:23:32.160Z,28.56
2023-04-04T06:24:32.146Z,28.59
2023-04-04T06:25:32.148Z,28.59
2023-04-04T06:26:32.132Z,28.59
2023-04-04T06:27:32.113Z,28.55
2023-04-04T06:28:32.103Z,28.59
2023-04-04T06:29:32.098Z,28.61
2023-04-04T06:30:32.101Z,28.56
2023-04-04T06:31:32.108Z,28.56
2023-04-04T06:32:32.084Z,28.54
2023-04-04T06:33:32.051Z,28.61
2023-04-04T06:34:32.032Z,28.58
2023-04-04T06:35:32.011Z,28.55
2023-04-04T06:36:32.049Z,28.52
2023-04-04T06:37:32.020Z,28.56
2023-04-04T06:38:31.977Z,28.59
2023-04-04T06:39:31.960Z,28.55
2023-04-04T06:40:31.944Z,28.59
2023-04-04T06:41:31.966Z,28.59
2023-04-04T06:42:31.989Z,28.58
2023-04-04T06:43:32.009Z,28.58
2023-04-04T06:44:32.053Z,28.56
2023-04-04T06:45:32.086Z,28.56
2023-04-04T06:46:32.164Z,28.52
2023-04-04T06:47:32.190Z,28.57
2023-04-04T06:48:32.192Z,28.55
2023-04-04T06:49:32.230Z,28.54
2023-04-04T06:50:32.268Z,28.51
2023-04-04T06:51:32.297Z,28.52
2023-04-04T06:52:32.332Z,28.54
2023-04-04T06:53:32.398Z,28.50
2023-04-04T06:54:32.398Z,28.56
2023-04-04T06:55:32.430Z,28.51
2023-04-04T06:56:32.454Z,28.49
2023-04-04T06:57:32.483Z,28.49
2023-04-04T06:58:32.509Z,28.52
2023-04-04T06:59:32.616Z,28.53
2023-04-04T07:00:32.609Z,28.49
2023-04-04T07:01:32.641Z,28.52
2023-04-04T07:02:32.754Z,28.52
2023-04-04T07:03:32.676Z,28.45
2023-04-04T07:04:32.709Z,28.47
2023-04-04T07:05:32.750Z,28.49
2023-04-04T07:06:32.769Z,28.45
2023-04-04T07:07:32.803Z,28.44
2023-04-04T07:08:36.183Z,28.47
2023-04-04T07:09:32.849Z,28.42
2023-04-04T07:10:32.793Z,28.40
2023-04-04T07:11:32.772Z,28.37
2023-04-04T07:12:32.750Z,28.37
2023-04-04T07:13:32.743Z,28.40
2023-04-04T07:14:32.720Z,28.34
2023-04-04T07:15:32.706Z,28.28
2023-04-04T07:16:32.737Z,28.25
2023-04-04T07:17:32.763Z,28.25
2023-04-04T07:18:32.671Z,28.25
2023-04-04T07:19:32.654Z,28.23
2023-04-04T07:20:32.626Z,28.19
2023-04-04T07:21:32.652Z,28.17
2023-04-04T07:22:32.670Z,28.17
2023-04-04T07:23:32.674Z,28.16
2023-04-04T07:24:32.686Z,28.13
2023-04-04T07:25:32.714Z,28.16
2023-04-04T07:26:32.707Z,28.12
2023-04-04T07:27:32.713Z,28.10
2023-04-04T07:28:32.711Z,28.11
2023-04-04T07:29:32.728Z,28.04
2023-04-04T07:30:32.730Z,28.07
2023-04-04T07:31:32.752Z,28.02
2023-04-04T07:32:32.751Z,28.02
2023-04-04T07:33:32.746Z,27.99
2023-04-04T07:34:32.755Z,28.01
2023-04-04T07:35:32.843Z,27.96
2023-04-04T07:36:32.762Z,27.93
2023-04-04T07:37:32.763Z,27.94
2023-04-04T07:38:32.757Z,27.96
2023-04-04T07:39:32.761Z,27.97
2023-04-04T07:40:32.773Z,27.92
2023-04-04T07:41:32.781Z,27.96
2023-04-04T07:42:32.780Z,27.93
2023-04-04T07:43:32.770Z,27.94
2023-04-04T07:44:32.776Z,27.93
2023-04-04T07:45:32.767Z,27.96
2023-04-04T07:46:32.933Z,27.96
2023-04-04T07:47:32.812Z,27.95
2023-04-04T07:48:32.760Z,27.93
2023-04-04T07:49:32.764Z,27.98
2023-04-04T07:50:32.762Z,27.97
2023-04-04T07:51:32.758Z,27.93
2023-04-04T07:52:32.762Z,27.93
2023-04-04T07:53:32.758Z,27.89
2023-04-04T07:54:32.765Z,27.91
2023-04-04T07:55:32.744Z,27.88
2023-04-04T07:56:32.747Z,27.90
2023-04-04T07:57:32.766Z,27.88
2023-04-04T07:58:32.755Z,27.91
2023-04-04T07:59:32.739Z,27.87
2023-04-04T08:00:32.745Z,27.83
2023-04-04T08:01:32.724Z,27.85
2023-04-04T08:02:32.744Z,27.86
2023-04-04T08:03:33.589Z,27.80
2023-04-04T08:04:32.711Z,27.82
2023-04-04T08:05:32.677Z,27.77
2023-04-04T08:06:32.653Z,27.80
2023-04-04T08:07:32.636Z,27.74
2023-04-04T08:08:32.643Z,27.70
2023-04-04T08:09:32.603Z,27.72
2023-04-04T08:10:32.586Z,27.70
2023-04-04T08:11:32.570Z,27.71
2023-04-04T08:12:32.595Z,27.66
2023-04-04T08:13:32.593Z,27.67
2023-04-04T08:14:32.582Z,27.68
2023-04-04T08:15:32.620Z,27.68
2023-04-04T08:16:32.836Z,27.64
2023-04-04T08:17:32.625Z,27.63
2023-04-04T08:18:32.603Z,27.59
2023-04-04T08:19:32.622Z,27.58
2023-04-04T08:20:32.626Z,27.56
2023-04-04T08:21:32.624Z,27.54
2023-04-04T08:22:32.660Z,27.56
2023-04-04T08:23:32.675Z,27.51
2023-04-04T08:24:32.705Z,27.55
2023-04-04T08:25:32.732Z,27.53
2023-04-04T08:26:32.765Z,27.57
2023-04-04T08:27:32.799Z,27.54
2023-04-04T08:28:32.879Z,27.46
2023-04-04T08:29:33.141Z,27.41
2023-04-04T08:30:32.925Z,27.45
2023-04-04T08:31:33.036Z,27.47
2023-04-04T08:32:33.023Z,27.41
2023-04-04T08:33:46.269Z,27.45
2023-04-04T08:34:33.042Z,27.43
2023-04-04T08:35:33.056Z,27.38
2023-04-04T08:36:33.044Z,27.40
2023-04-04T08:37:32.969Z,27.42
2023-04-04T08:38:32.945Z,27.35
2023-04-04T08:39:32.918Z,27.30
2023-04-04T08:40:33.855Z,27.30
2023-04-04T08:41:32.910Z,27.30
2023-04-04T08:42:32.847Z,27.28
2023-04-04T08:43:32.824Z,27.26
2023-04-04T08:44:32.790Z,27.30
2023-04-04T08:45:32.800Z,27.28
2023-04-04T08:46:32.761Z,27.25
2023-04-04T08:47:32.744Z,27.22
2023-04-04T08:48:32.693Z,27.22
2023-04-04T08:49:32.678Z,27.18
2023-04-04T08:50:32.654Z,27.21
2023-04-04T08:51:32.629Z,27.17
2023-04-04T08:52:32.593Z,27.17
2023-04-04T08:53:32.576Z,27.13
2023-04-04T08:54:32.537Z,27.12
2023-04-04T08:55:32.514Z,27.12
2023-04-04T08:56:32.491Z,27.08
2023-04-04T08:57:32.461Z,27.10
2023-04-04T08:58:32.442Z,27.12
2023-04-04T08:59:32.475Z,27.11
2023-04-04T09:00:32.370Z,27.12
2023-04-04T09:01:32.487Z,27.10
2023-04-04T09:02:32.390Z,27.08
2023-04-04T09:03:32.313Z,27.12
2023-04-04T09:04:32.251Z,27.06
2023-04-04T09:05:32.214Z,27.07
2023-04-04T09:06:32.195Z,27.06
2023-04-04T09:07:32.153Z,27.02
2023-04-04T09:08:32.123Z,27.05
2023-04-04T09:09:32.107Z,27.01
2023-04-04T09:10:32.109Z,26.99
2023-04-04T09:11:32.039Z,26.95
2023-04-04T09:12:32.018Z,27.00
2023-04-04T09:13:31.995Z,26.93
2023-04-04T09:14:32.011Z,26.92
2023-04-04T09:15:31.922Z,26.96
2023-04-04T09:16:32.050Z,26.90
2023-04-04T09:17:31.936Z,26.91
2023-04-04T09:18:31.970Z,26.92
2023-04-04T09:19:31.862Z,26.86
2023-04-04T09:20:31.856Z,26.87
2023-04-04T09:21:31.843Z,26.84
2023-04-04T09:22:31.851Z,26.84
2023-04-04T09:23:31.822Z,26.78
2023-04-04T09:24:31.804Z,26.75
2023-04-04T09:25:31.793Z,26.82
2023-04-04T09:26:31.786Z,26.78
2023-04-04T09:27:31.778Z,26.75
2023-04-04T09:28:31.817Z,26.79
2023-04-04T09:29:31.735Z,26.77
2023-04-04T09:30:31.711Z,26.77
2023-04-04T09:31:31.729Z,26.77
2023-04-04T09:32:31.703Z,26.75
2023-04-04T09:33:31.699Z,26.74
2023-04-04T09:34:31.695Z,26.73
2023-04-04T09:35:31.691Z,26.70
2023-04-04T09:36:31.631Z,26.73
2023-04-04T09:37:31.592Z,26.74
2023-04-04T09:38:31.610Z,26.74
2023-04-04T09:39:31.551Z,26.73
2023-04-04T09:40:31.560Z,26.69
2023-04-04T09:41:31.506Z,26.72
2023-04-04T09:42:31.493Z,26.71
2023-04-04T09:43:32.284Z,26.71
2023-04-04T09:44:31.431Z,26.68
2023-04-04T09:45:32.553Z,26.69
2023-04-04T09:46:31.400Z,26.71
2023-04-04T09:47:31.847Z,26.65
2023-04-04T09:48:31.327Z,26.68
2023-04-04T09:49:31.317Z,26.68
2023-04-04T09:50:31.491Z,26.66
2023-04-04T09:51:31.223Z,26.64
2023-04-04T09:52:31.199Z,26.66
2023-04-04T09:53:31.175Z,26.61
2023-04-04T09:54:31.501Z,26.60
2023-04-04T09:55:31.171Z,26.61
2023-04-04T09:56:33.149Z,26.61
2023-04-04T09:57:31.056Z,26.59
2023-04-04T09:58:31.024Z,26.60
2023-04-04T09:59:31.013Z,26.61
2023-04-04T10:00:30.957Z,26.61
2023-04-04T10:01:31.036Z,26.52
2023-04-04T10:02:30.988Z,26.59
2023-04-04T10:03:30.877Z,26.59
2023-04-04T10:04:30.911Z,26.57
2023-04-04T10:05:30.924Z,26.57
2023-04-04T10:06:30.775Z,26.56
2023-04-04T10:07:30.739Z,26.56
2023-04-04T10:08:30.726Z,26.52
2023-04-04T10:09:30.688Z,26.56
2023-04-04T10:10:30.643Z,26.55
2023-04-04T10:11:30.617Z,26.59
2023-04-04T10:12:30.580Z,26.58
2023-04-04T10:13:30.551Z,26.56
2023-04-04T10:14:30.530Z,26.56
2023-04-04T10:15:30.502Z,26.56
2023-04-04T10:16:30.458Z,26.55
2023-04-04T10:17:30.498Z,26.57
2023-04-04T10:18:30.389Z,26.58
2023-04-04T10:19:30.361Z,26.54
2023-04-04T10:20:30.311Z,26.58
2023-04-04T10:21:30.312Z,26.61
2023-04-04T10:22:30.257Z,26.54
2023-04-04T10:23:30.219Z,26.55
2023-04-04T10:24:30.190Z,26.52
2023-04-04T10:25:30.153Z,26.54
2023-04-04T10:26:30.120Z,26.55
2023-04-04T10:27:30.089Z,26.55
2023-04-04T10:28:30.047Z,26.54
2023-04-04T10:29:30.019Z,26.52
2023-04-04T10:30:29.989Z,26.50
2023-04-04T10:31:29.977Z,26.52
2023-04-04T10:32:29.929Z,26.49
2023-04-04T10:33:29.887Z,26.51
2023-04-04T10:34:29.854Z,26.47
2023-04-04T10:35:29.827Z,26.54
2023-04-04T10:36:29.791Z,26.50
2023-04-04T10:37:29.789Z,26.53
2023-04-04T10:38:29.733Z,26.50
2023-04-04T10:39:29.703Z,26.50
2023-04-04T10:40:29.680Z,26.47
2023-04-04T10:41:29.646Z,26.50
2023-04-04T10:42:29.596Z,26.47
2023-04-04T10:43:29.557Z,26.54
2023-04-04T10:44:29.523Z,26.49
2023-04-04T10:45:29.501Z,26.57
2023-04-04T10:46:29.508Z,26.50
2023-04-04T10:47:29.486Z,26.52
2023-04-04T10:48:29.407Z,26.53
2023-04-04T10:49:29.369Z,26.50
2023-04-04T10:50:29.340Z,26.49
2023-04-04T10:51:29.313Z,26.50
2023-04-04T10:52:29.287Z,26.53
2023-04-04T10:53:29.273Z,26.46
2023-04-04T10:54:29.284Z,26.47
2023-04-04T10:55:29.178Z,26.46
2023-04-04T10:56:29.148Z,26.47
2023-04-04T10:57:29.120Z,26.46
2023-04-04T10:58:29.102Z,26.47
2023-04-04T10:59:29.087Z,26.46
2023-04-04T11:00:29.022Z,26.47
2023-04-04T11:01:28.994Z,26.46
2023-04-04T11:02:28.985Z,26.50
2023-04-04T11:03:28.929Z,26.47
2023-04-04T11:04:28.898Z,26.49
2023-04-04T11:05:28.865Z,26.52
2023-04-04T11:06:28.839Z,26.50
2023-04-04T11:07:28.799Z,26.49
2023-04-04T11:08:28.779Z,26.43
2023-04-04T11:09:28.768Z,26.47
2023-04-04T11:10:28.712Z,26.45
2023-04-04T11:11:28.683Z,26.45
2023-04-04T11:12:28.686Z,26.47
2023-04-04T11:13:28.633Z,26.47
2023-04-04T11:14:28.627Z,26.46
2023-04-04T11:15:28.630Z,26.46
2023-04-04T11:16:28.704Z,26.50
2023-04-04T11:17:28.683Z,26.50
2023-04-04T11:18:33.749Z,26.47
2023-04-04T11:19:28.630Z,26.45
2023-04-04T11:20:28.605Z,26.42
2023-04-04T11:21:28.570Z,26.45
2023-04-04T11:22:28.542Z,26.45
2023-04-04T11:23:28.509Z,26.45
2023-04-04T11:24:28.505Z,26.49
2023-04-04T11:25:28.478Z,26.47
2023-04-04T11:26:28.416Z,26.47
2023-04-04T11:27:28.442Z,26.49
2023-04-04T11:28:28.360Z,26.45
2023-04-04T11:29:28.327Z,26.46
2023-04-04T11:30:28.311Z,26.50
2023-04-04T11:31:28.305Z,26.43
2023-04-04T11:32:28.273Z,26.46
2023-04-04T11:33:28.242Z,26.45
2023-04-04T11:34:28.184Z,26.49
2023-04-04T11:35:28.157Z,26.43
2023-04-04T11:36:28.228Z,26.43
2023-04-04T11:37:28.102Z,26.49
2023-04-04T11:38:28.083Z,26.42
2023-04-04T11:39:28.040Z,26.45
2023-04-04T11:40:28.006Z,26.43
2023-04-04T11:41:28.004Z,26.46
2023-04-04T11:42:27.948Z,26.42
2023-04-04T11:43:27.923Z,26.42
2023-04-04T11:44:27.910Z,26.47
2023-04-04T11:45:27.885Z,26.48
2023-04-04T11:46:27.906Z,26.44
2023-04-04T11:47:27.843Z,26.46
2023-04-04T11:48:27.804Z,26.47
2023-04-04T11:49:27.773Z,26.44
2023-04-04T11:50:27.744Z,26.47
2023-04-04T11:51:27.717Z,26.43
2023-04-04T11:52:27.688Z,26.46
2023-04-04T11:53:27.654Z,26.39
2023-04-04T11:54:27.638Z,26.48
2023-04-04T11:55:27.604Z,26.43
2023-04-04T11:56:27.590Z,26.43
2023-04-04T11:57:27.632Z,26.44
2023-04-04T11:58:27.528Z,26.46
2023-04-04T11:59:27.511Z,26.41
2023-04-04T12:00:27.482Z,26.46
2023-04-04T12:01:27.457Z,26.40
2023-04-04T12:02:27.675Z,26.41
2023-04-04T12:03:27.509Z,26.43
2023-04-04T12:04:27.389Z,26.41
2023-04-04T12:05:27.436Z,26.47
2023-04-04T12:06:27.314Z,26.43
2023-04-04T12:07:27.281Z,26.37
2023-04-04T12:08:27.261Z,26.40
2023-04-04T12:09:27.224Z,26.39
2023-04-04T12:10:27.179Z,26.39
2023-04-04T12:11:27.156Z,26.39
2023-04-04T12:12:27.114Z,26.39
2023-04-04T12:13:27.122Z,26.45
2023-04-04T12:14:27.050Z,26.40
2023-04-04T12:15:27.027Z,26.42
2023-04-04T12:16:27.048Z,26.45
2023-04-04T12:17:26.988Z,26.42
2023-04-04T12:18:26.939Z,26.42
2023-04-04T12:19:26.901Z,26.39
2023-04-04T12:20:26.870Z,26.42
2023-04-04T12:21:26.843Z,26.42
2023-04-04T12:22:26.824Z,26.41
2023-04-04T12:23:26.797Z,26.41
2023-04-04T12:24:26.768Z,26.41
2023-04-04T12:25:26.738Z,26.46
2023-04-04T12:26:26.719Z,26.43
2023-04-04T12:27:26.701Z,26.47
2023-04-04T12:28:27.893Z,26.45
2023-04-04T12:29:26.924Z,26.46
2023-04-04T12:30:26.881Z,26.46
2023-04-04T12:31:26.892Z,26.50
2023-04-04T12:32:26.915Z,26.50
2023-04-04T12:33:26.834Z,26.46
2023-04-04T12:34:26.825Z,26.50
2023-04-04T12:35:26.821Z,26.51
2023-04-04T12:36:26.865Z,26.47
2023-04-04T12:37:26.796Z,26.51
2023-04-04T12:38:26.781Z,26.47
2023-04-04T12:39:26.781Z,26.48
2023-04-04T12:40:26.765Z,26.50
2023-04-04T12:41:26.752Z,26.48
2023-04-04T12:42:26.784Z,26.51
2023-04-04T12:43:26.749Z,26.50
2023-04-04T12:44:26.756Z,26.55
2023-04-04T12:45:26.777Z,26.49
2023-04-04T12:46:26.749Z,26.52
2023-04-04T12:47:26.778Z,26.56
2023-04-04T12:48:26.742Z,26.52
2023-04-04T12:49:26.747Z,26.52
2023-04-04T12:50:26.750Z,26.53
2023-04-04T12:51:26.744Z,26.50
2023-04-04T12:52:26.757Z,26.54